createdAt,value
2023-03-03T00:01:06.569Z,42.40
2023-03-03T00:06:11.580Z,47.58
2023-03-03T00:11:13.502Z,39.55
2023-03-03T00:16:26.531Z,43.50
2023-03-03T00:21:41.090Z,37.58
2023-03-03T00:26:46.927Z,43.78
2023-03-03T00:31:49.047Z,46.03
2023-03-03T00:36:54.848Z,44.42
2023-03-03T00:41:57.716Z,45.33
2023-03-03T00:47:11.862Z,46.65
2023-03-03T00:52:18.777Z,46.42
2023-03-03T00:57:20.419Z,40.15
2023-03-03T01:02:23.204Z,45.78
2023-03-03T01:07:25.664Z,50.55
2023-03-03T01:12:27.197Z,44.30
2023-03-03T01:17:29.268Z,41.05
2023-03-03T01:22:34.240Z,39.20
2023-03-03T01:27:36.695Z,43.00
2023-03-03T01:32:40.590Z,37.35
2023-03-03T01:37:42.391Z,45.42
2023-03-03T01:42:43.928Z,48.75
2023-03-03T01:47:51.113Z,48.15
2023-03-03T01:52:52.700Z,52.97
2023-03-03T01:58:03.683Z,47.67
2023-03-03T02:03:06.002Z,46.70
2023-03-03T02:08:12.372Z,46.42
2023-03-03T02:13:14.067Z,58.85
2023-03-03T02:18:20.768Z,59.20
2023-03-03T02:23:25.368Z,46.40
2023-03-03T02:28:30.275Z,59.33
2023-03-03T02:33:35.367Z,51.72
2023-03-03T02:38:56.259Z,50.38
2023-03-03T02:44:01.419Z,51.90
2023-03-03T02:49:08.253Z,53.78
2023-03-03T02:54:11.396Z,46.25
2023-03-03T02:59:13.319Z,48.35
2023-03-03T03:04:22.698Z,42.63
2023-03-03T03:09:26.291Z,66.88
2023-03-03T03:14:29.614Z,54.28
2023-03-03T03:19:31.831Z,45.65
2023-03-03T03:24:38.704Z,69.07
2023-03-03T03:29:43.279Z,53.25
2023-03-03T03:34:45.096Z,55.88
2023-03-03T03:39:46.749Z,52.13
2023-03-03T03:44:50.968Z,46.85
2023-03-03T03:49:53.190Z,57.33
2023-03-03T03:54:55.101Z,54.72
2023-03-03T03:59:56.970Z,56.38
2023-03-03T04:04:58.775Z,43.80
2023-03-03T04:10:00.584Z,56.38
2023-03-03T04:15:05.515Z,53.65
2023-03-03T04:20:09.222Z,60.10
2023-03-03T04:25:15.640Z,54.13
2023-03-03T04:30:18.615Z,51.75
2023-03-03T04:35:22.863Z,51.78
2023-03-03T04:40:24.540Z,56.15
2023-03-03T04:45:26.619Z,49.67
2023-03-03T04:50:28.530Z,44.38
2023-03-03T04:55:30.289Z,50.30
2023-03-03T05:00:31.957Z,49.78
2023-03-03T05:05:35.732Z,61.33
2023-03-03T05:10:37.286Z,53.03
2023-03-03T05:15:39.219Z,54.70
2023-03-03T05:20:42.068Z,52.75
2023-03-03T05:25:44.006Z,56.72
2023-03-03T05:30:46.570Z,48.28
2023-03-03T05:35:48.162Z,47.90
2023-03-03T05:40:50.073Z,44.35
2023-03-03T05:45:56.747Z,46.92
2023-03-03T05:51:01.909Z,44.88
2023-03-03T05:56:03.716Z,48.60
2023-03-03T06:01:05.459Z,47.58
2023-03-03T06:06:09.118Z,57.95
2023-03-03T06:11:11.290Z,45.53
2023-03-03T06:16:13.119Z,51.13
2023-03-03T06:21:14.795Z,48.03
2023-03-03T06:26:16.339Z,50.58
2023-03-03T06:31:17.989Z,48.33
2023-03-03T06:36:20.192Z,50.08
2023-03-03T06:41:21.741Z,48.35
2023-03-03T06:46:23.447Z,44.75
2023-03-03T06:51:31.009Z,43.15
2023-03-03T06:56:36.742Z,43.70
2023-03-03T07:01:38.615Z,45.40
2023-03-03T07:06:40.172Z,44.10
2023-03-03T07:11:41.843Z,49.13
2023-03-03T07:16:43.550Z,44.50
2023-03-03T07:21:45.128Z,46.88
2023-03-03T07:26:46.646Z,43.25
2023-03-03T07:31:50.003Z,43.90
2023-03-03T07:36:57.723Z,49.88
2023-03-03T07:42:21.165Z,46.20
2023-03-03T07:47:31.805Z,50.70
2023-03-03T07:52:40.582Z,47.20
2023-03-03T07:57:43.062Z,61.43
2023-03-03T08:02:53.800Z,52.08
2023-03-03T08:08:16.323Z,51.55
2023-03-03T08:13:24.135Z,52.47
2023-03-03T08:18:30.520Z,47.13
2023-03-03T08:23:32.062Z,51.35
2023-03-03T08:28:33.850Z,52.60
2023-03-03T08:33:35.543Z,48.40
2023-03-03T08:38:37.578Z,53.92
2023-03-03T08:43:39.428Z,49.38
2023-03-03T08:48:41.081Z,51.08
2023-03-03T08:53:42.686Z,56.00
2023-03-03T08:59:01.297Z,51.60
2023-03-03T09:09:05.709Z,54.10
2023-03-03T09:14:14.665Z,51.90
2023-03-03T09:19:32.945Z,47.03
2023-03-03T09:24:36.158Z,52.05
2023-03-03T09:29:40.552Z,47.42
2023-03-03T09:34:43.116Z,45.55
2023-03-03T09:39:48.614Z,45.75
2023-03-03T09:45:15.217Z,47.08
2023-03-03T09:50:42.236Z,46.20
2023-03-03T09:55:54.644Z,47.55
2023-03-03T10:01:28.336Z,43.17
2023-03-03T10:06:38.530Z,45.83
2023-03-03T10:11:56.467Z,46.67
2023-03-03T10:17:39.449Z,43.50
2023-03-03T10:23:10.345Z,46.17
2023-03-03T10:28:30.258Z,44.95
2023-03-03T10:33:48.094Z,45.45
2023-03-03T10:39:15.999Z,42.33
2023-03-03T10:44:32.827Z,41.13
2023-03-03T10:49:50.425Z,42.20
2023-03-03T10:55:10.281Z,47.88
2023-03-03T11:00:18.242Z,43.70
2023-03-03T11:05:25.083Z,40.10
2023-03-03T11:10:32.641Z,45.95
2023-03-03T11:15:39.744Z,44.78
2023-03-03T11:21:23.004Z,42.67
2023-03-03T11:26:30.406Z,44.25
2023-03-03T11:32:03.221Z,46.63
2023-03-03T11:37:09.914Z,42.35
2023-03-03T11:42:34.881Z,43.35
2023-03-03T11:47:58.290Z,36.97
2023-03-03T11:53:54.259Z,40.40
2023-03-03T11:59:14.299Z,38.03
2023-03-03T12:04:20.553Z,37.75
2023-03-03T12:09:38.983Z,36.83
2023-03-03T12:14:58.932Z,39.45
2023-03-03T12:20:23.604Z,40.78
2023-03-03T12:25:45.262Z,36.95
2023-03-03T12:31:08.921Z,37.55
2023-03-03T12:36:22.517Z,43.60
2023-03-03T12:41:56.143Z,38.45
2023-03-03T12:47:04.036Z,37.08
2023-03-03T12:52:29.530Z,37.30
2023-03-03T12:57:39.461Z,38.67
2023-03-03T13:02:59.154Z,40.47
2023-03-03T13:08:22.613Z,39.58
2023-03-03T13:13:48.884Z,38.78
2023-03-03T13:19:16.170Z,44.05
2023-03-03T13:24:35.408Z,38.75
2023-03-03T13:29:42.690Z,43.77
2023-03-03T13:35:16.687Z,40.92
2023-03-03T13:40:27.848Z,41.03
2023-03-03T13:45:35.598Z,42.60
2023-03-03T13:51:14.964Z,42.08
2023-03-03T13:56:37.025Z,43.40
2023-03-03T14:02:03.643Z,42.08
2023-03-03T14:07:17.266Z,41.95
2023-03-03T14:12:29.450Z,39.03
2023-03-03T14:17:37.203Z,36.83
2023-03-03T14:23:01.866Z,43.17
2023-03-03T14:28:14.231Z,38.88
2023-03-03T14:33:21.540Z,35.78
2023-03-03T14:38:35.676Z,38.20
2023-03-03T14:43:58.750Z,37.65
2023-03-03T14:49:34.168Z,39.83
2023-03-03T14:54:41.409Z,46.03
2023-03-03T15:00:06.731Z,39.92
2023-03-03T15:05:19.675Z,41.35
2023-03-03T15:10:30.777Z,37.35
2023-03-03T15:15:32.435Z,41.42
2023-03-03T15:20:46.705Z,40.33
2023-03-03T15:26:03.673Z,41.63
2023-03-03T15:31:12.996Z,38.45
2023-03-03T15:36:43.832Z,40.42
2023-03-03T15:42:06.084Z,41.60
2023-03-03T15:47:32.604Z,41.85
2023-03-03T15:52:34.577Z,40.78
2023-03-03T15:57:42.231Z,45.03
2023-03-03T16:02:58.796Z,38.80
2023-03-03T16:08:32.975Z,39.92
2023-03-03T16:13:43.651Z,43.42
2023-03-03T16:19:17.676Z,44.33
2023-03-03T16:24:41.200Z,39.78
2023-03-03T16:29:59.637Z,40.90
2023-03-03T16:35:19.515Z,40.83
2023-03-03T16:45:35.399Z,44.33
2023-03-03T16:50:39.724Z,40.85
2023-03-03T16:55:58.209Z,42.50
2023-03-03T17:01:21.603Z,40.65
2023-03-03T17:06:48.042Z,38.63
2023-03-03T17:12:14.561Z,44.17
2023-03-03T17:17:36.438Z,44.47
2023-03-03T17:23:09.007Z,41.85
2023-03-03T17:28:25.705Z,38.25
2023-03-03T17:33:46.003Z,42.67
2023-03-03T17:39:13.915Z,43.00
2023-03-03T17:44:35.500Z,39.97
2023-03-03T17:49:55.980Z,42.35
2023-03-03T17:55:10.159Z,39.63
2023-03-03T18:00:33.139Z,38.38
2023-03-03T18:05:43.842Z,38.65
2023-03-03T18:11:07.265Z,36.33
2023-03-03T18:16:28.533Z,38.97
2023-03-03T18:22:16.634Z,38.92
2023-03-03T18:27:24.158Z,47.90
2023-03-03T18:32:42.805Z,45.33
2023-03-03T18:37:45.136Z,46.17
2023-03-03T18:42:49.805Z,49.33
2023-03-03T18:48:14.100Z,46.53
2023-03-03T18:53:29.878Z,46.67
2023-03-03T18:58:34.037Z,40.15
2023-03-03T19:03:55.333Z,48.78
2023-03-03T19:08:58.681Z,46.28
2023-03-03T19:14:25.947Z,43.38
2023-03-03T19:19:34.363Z,43.10
2023-03-03T19:24:37.347Z,44.97
2023-03-03T19:29:44.902Z,40.80
2023-03-03T19:35:14.816Z,46.92
2023-03-03T19:40:19.404Z,36.88
2023-03-03T19:45:53.598Z,50.10
2023-03-03T19:51:13.275Z,48.03
2023-03-03T20:01:32.969Z,52.65
2023-03-03T20:06:40.381Z,46.08
2023-03-03T20:11:59.078Z,41.05
2023-03-03T20:17:42.283Z,45.27
2023-03-03T20:23:06.870Z,44.95
2023-03-03T20:28:31.248Z,38.75
2023-03-03T20:33:44.861Z,40.97
2023-03-03T20:39:00.659Z,34.03
2023-03-03T20:44:33.889Z,33.95
2023-03-03T20:50:06.557Z,42.78
2023-03-03T20:55:39.957Z,45.05
2023-03-03T21:01:06.448Z,38.15
2023-03-03T21:06:15.267Z,38.00
2023-03-03T21:11:29.668Z,36.77
2023-03-03T21:16:32.930Z,34.42
2023-03-03T21:21:38.036Z,31.35
2023-03-03T21:26:56.264Z,34.35
2023-03-03T21:32:05.165Z,29.65
2023-03-03T21:37:10.047Z,33.15
2023-03-03T21:42:15.464Z,38.72
2023-03-03T21:47:18.026Z,40.00
2023-03-03T21:52:22.493Z,34.05
2023-03-03T21:57:25.152Z,36.13
2023-03-03T22:02:26.745Z,34.13
2023-03-03T22:07:28.367Z,35.78
2023-03-03T22:12:29.925Z,37.38
2023-03-03T22:17:31.498Z,41.50
2023-03-03T22:22:33.257Z,43.20
2023-03-03T22:27:34.857Z,34.97
2023-03-03T22:32:36.384Z,37.08
2023-03-03T22:37:37.999Z,33.05
2023-03-03T22:42:39.549Z,39.30
2023-03-03T22:47:41.229Z,35.78
2023-03-03T22:52:42.975Z,36.95
2023-03-03T22:57:44.539Z,38.33
2023-03-03T23:02:46.091Z,39.10
2023-03-03T23:07:47.650Z,41.70
2023-03-03T23:12:49.185Z,34.70
2023-03-03T23:17:50.927Z,36.55
2023-03-03T23:22:52.840Z,29.45
2023-03-03T23:27:55.170Z,30.98
2023-03-03T23:32:56.766Z,36.42
2023-03-03T23:37:58.331Z,35.42
2023-03-03T23:42:59.856Z,35.58
2023-03-03T23:48:02.013Z,40.45
2023-03-03T23:53:04.933Z,31.58
2023-03-03T23:58:06.488Z,37.70
